sensor_id;sensor_type;location;lat;lon;timestamp;P1;durP1;ratioP1;P2;durP2;ratioP2
60076;SDS011;45950;45.208;20.374;2024-02-15T00:01:02;54.33;;;29.90;;
60076;SDS011;45950;45.208;20.374;2024-02-15T00:03:29;48.33;;;27.88;;
60076;SDS011;45950;45.208;20.374;2024-02-15T00:05:56;46.40;;;25.95;;
60076;SDS011;45950;45.208;20.374;2024-02-15T00:08:23;46.17;;;24.20;;
60076;SDS011;45950;45.208;20.374;2024-02-15T00:10:53;36.47;;;23.13;;
60076;SDS011;45950;45.208;20.374;2024-02-15T00:13:23;43.85;;;25.27;;
60076;SDS011;45950;45.208;20.374;2024-02-15T00:15:50;51.13;;;28.92;;
60076;SDS011;45950;45.208;20.374;2024-02-15T00:18:17;60.88;;;34.05;;
60076;SDS011;45950;45.208;20.374;2024-02-15T00:20:44;82.00;;;41.67;;
60076;SDS011;45950;45.208;20.374;2024-02-15T00:23:11;86.07;;;43.88;;
60076;SDS011;45950;45.208;20.374;2024-02-15T00:25:37;108.80;;;49.15;;
60076;SDS011;45950;45.208;20.374;2024-02-15T00:28:06;120.47;;;51.33;;
60076;SDS011;45950;45.208;20.374;2024-02-15T00:30:33;125.75;;;56.58;;
60076;SDS011;45950;45.208;20.374;2024-02-15T00:32:59;124.13;;;55.60;;
60076;SDS011;45950;45.208;20.374;2024-02-15T00:35:28;126.65;;;53.70;;
60076;SDS011;45950;45.208;20.374;2024-02-15T00:37:54;106.43;;;50.92;;
60076;SDS011;45950;45.208;20.374;2024-02-15T00:40:30;108.68;;;51.47;;
60076;SDS011;45950;45.208;20.374;2024-02-15T00:42:57;104.50;;;49.33;;
60076;SDS011;45950;45.208;20.374;2024-02-15T00:45:25;104.97;;;49.00;;
60076;SDS011;45950;45.208;20.374;2024-02-15T00:47:57;102.85;;;51.47;;
60076;SDS011;45950;45.208;20.374;2024-02-15T00:50:24;99.50;;;47.88;;
60076;SDS011;45950;45.208;20.374;2024-02-15T00:52:51;115.45;;;51.67;;
60076;SDS011;45950;45.208;20.374;2024-02-15T00:55:24;107.40;;;52.05;;
60076;SDS011;45950;45.208;20.374;2024-02-15T00:57:51;109.43;;;53.08;;
60076;SDS011;45950;45.208;20.374;2024-02-15T01:00:18;118.55;;;57.15;;
60076;SDS011;45950;45.208;20.374;2024-02-15T01:02:48;102.28;;;52.67;;
60076;SDS011;45950;45.208;20.374;2024-02-15T01:05:15;109.15;;;53.67;;
60076;SDS011;45950;45.208;20.374;2024-02-15T01:07:41;109.97;;;54.22;;
60076;SDS011;45950;45.208;20.374;2024-02-15T01:10:08;106.15;;;53.30;;
60076;SDS011;45950;45.208;20.374;2024-02-15T01:12:35;94.80;;;48.17;;
60076;SDS011;45950;45.208;20.374;2024-02-15T01:15:01;74.47;;;39.33;;
60076;SDS011;45950;45.208;20.374;2024-02-15T01:17:28;50.50;;;27.75;;
60076;SDS011;45950;45.208;20.374;2024-02-15T01:19:56;54.42;;;29.70;;
60076;SDS011;45950;45.208;20.374;2024-02-15T01:22:23;54.33;;;30.33;;
60076;SDS011;45950;45.208;20.374;2024-02-15T01:24:51;44.65;;;24.48;;
60076;SDS011;45950;45.208;20.374;2024-02-15T01:27:17;39.72;;;22.13;;
60076;SDS011;45950;45.208;20.374;2024-02-15T01:29:44;40.05;;;21.48;;
60076;SDS011;45950;45.208;20.374;2024-02-15T01:32:11;37.22;;;20.98;;
60076;SDS011;45950;45.208;20.374;2024-02-15T01:34:37;37.20;;;20.38;;
60076;SDS011;45950;45.208;20.374;2024-02-15T01:37:05;34.60;;;18.98;;
60076;SDS011;45950;45.208;20.374;2024-02-15T01:39:32;35.72;;;20.17;;
60076;SDS011;45950;45.208;20.374;2024-02-15T01:41:58;34.70;;;19.25;;
60076;SDS011;45950;45.208;20.374;2024-02-15T01:44:25;31.58;;;20.20;;
60076;SDS011;45950;45.208;20.374;2024-02-15T01:46:52;31.38;;;17.40;;
60076;SDS011;45950;45.208;20.374;2024-02-15T01:49:19;28.85;;;17.33;;
60076;SDS011;45950;45.208;20.374;2024-02-15T01:51:47;37.40;;;18.20;;
60076;SDS011;45950;45.208;20.374;2024-02-15T01:54:15;34.33;;;18.85;;
60076;SDS011;45950;45.208;20.374;2024-02-15T01:56:43;31.45;;;17.25;;
60076;SDS011;45950;45.208;20.374;2024-02-15T01:59:08;30.23;;;16.23;;
60076;SDS011;45950;45.208;20.374;2024-02-15T02:01:36;29.40;;;17.30;;
60076;SDS011;45950;45.208;20.374;2024-02-15T02:04:03;29.25;;;16.55;;
60076;SDS011;45950;45.208;20.374;2024-02-15T02:06:30;27.52;;;16.80;;
60076;SDS011;45950;45.208;20.374;2024-02-15T02:08:57;34.42;;;19.55;;
60076;SDS011;45950;45.208;20.374;2024-02-15T02:11:25;40.08;;;21.95;;
60076;SDS011;45950;45.208;20.374;2024-02-15T02:13:54;39.15;;;22.65;;
60076;SDS011;45950;45.208;20.374;2024-02-15T02:16:24;40.75;;;23.58;;
60076;SDS011;45950;45.208;20.374;2024-02-15T02:18:51;41.53;;;23.33;;
60076;SDS011;45950;45.208;20.374;2024-02-15T02:21:18;43.85;;;23.15;;
60076;SDS011;45950;45.208;20.374;2024-02-15T02:23:45;43.83;;;22.80;;
60076;SDS011;45950;45.208;20.374;2024-02-15T02:26:16;42.00;;;23.23;;
60076;SDS011;45950;45.208;20.374;2024-02-15T02:28:43;39.70;;;21.02;;
60076;SDS011;45950;45.208;20.374;2024-02-15T02:31:09;37.67;;;22.20;;
60076;SDS011;45950;45.208;20.374;2024-02-15T02:33:36;34.33;;;19.98;;
60076;SDS011;45950;45.208;20.374;2024-02-15T02:36:03;36.97;;;21.40;;
60076;SDS011;45950;45.208;20.374;2024-02-15T02:38:34;35.55;;;19.15;;
60076;SDS011;45950;45.208;20.374;2024-02-15T02:41:03;32.42;;;19.90;;
60076;SDS011;45950;45.208;20.374;2024-02-15T02:43:31;35.90;;;21.27;;
60076;SDS011;45950;45.208;20.374;2024-02-15T02:45:57;39.05;;;20.98;;
60076;SDS011;45950;45.208;20.374;2024-02-15T02:48:24;36.75;;;21.00;;
60076;SDS011;45950;45.208;20.374;2024-02-15T02:50:52;36.05;;;21.75;;
60076;SDS011;45950;45.208;20.374;2024-02-15T02:53:28;35.67;;;21.17;;
60076;SDS011;45950;45.208;20.374;2024-02-15T02:55:55;44.95;;;23.42;;
60076;SDS011;45950;45.208;20.374;2024-02-15T02:58:22;53.75;;;29.52;;
60076;SDS011;45950;45.208;20.374;2024-02-15T03:00:50;45.90;;;25.70;;
60076;SDS011;45950;45.208;20.374;2024-02-15T03:03:17;62.22;;;32.17;;
60076;SDS011;45950;45.208;20.374;2024-02-15T03:05:44;59.83;;;31.90;;
60076;SDS011;45950;45.208;20.374;2024-02-15T03:08:11;68.18;;;36.45;;
60076;SDS011;45950;45.208;20.374;2024-02-15T03:10:38;78.82;;;41.72;;
60076;SDS011;45950;45.208;20.374;2024-02-15T03:16:10;92.03;;;46.67;;
60076;SDS011;45950;45.208;20.374;2024-02-15T03:18:36;85.90;;;42.30;;
60076;SDS011;45950;45.208;20.374;2024-02-15T03:21:03;74.57;;;40.78;;
60076;SDS011;45950;45.208;20.374;2024-02-15T03:26:16;52.75;;;31.15;;
60076;SDS011;45950;45.208;20.374;2024-02-15T03:28:44;49.50;;;29.13;;
60076;SDS011;45950;45.208;20.374;2024-02-15T03:31:13;49.92;;;29.05;;
60076;SDS011;45950;45.208;20.374;2024-02-15T03:33:40;44.72;;;25.75;;
60076;SDS011;45950;45.208;20.374;2024-02-15T03:36:06;46.08;;;27.45;;
60076;SDS011;45950;45.208;20.374;2024-02-15T03:38:35;45.10;;;24.35;;
60076;SDS011;45950;45.208;20.374;2024-02-15T03:41:01;45.00;;;25.60;;
60076;SDS011;45950;45.208;20.374;2024-02-15T03:43:28;39.22;;;22.67;;
60076;SDS011;45950;45.208;20.374;2024-02-15T03:45:55;38.17;;;20.00;;
60076;SDS011;45950;45.208;20.374;2024-02-15T03:48:24;38.22;;;22.50;;
60076;SDS011;45950;45.208;20.374;2024-02-15T03:53:41;38.78;;;21.48;;
60076;SDS011;45950;45.208;20.374;2024-02-15T03:56:08;42.15;;;23.50;;
60076;SDS011;45950;45.208;20.374;2024-02-15T03:58:35;37.28;;;21.40;;
60076;SDS011;45950;45.208;20.374;2024-02-15T04:01:02;38.60;;;23.33;;
60076;SDS011;45950;45.208;20.374;2024-02-15T04:03:38;40.65;;;23.55;;
60076;SDS011;45950;45.208;20.374;2024-02-15T04:06:05;43.40;;;24.85;;
60076;SDS011;45950;45.208;20.374;2024-02-15T04:08:31;48.55;;;24.48;;
60076;SDS011;45950;45.208;20.374;2024-02-15T04:11:06;45.58;;;26.88;;
60076;SDS011;45950;45.208;20.374;2024-02-15T04:13:33;43.95;;;25.40;;
60076;SDS011;45950;45.208;20.374;2024-02-15T04:16:00;47.35;;;25.15;;
60076;SDS011;45950;45.208;20.374;2024-02-15T04:18:26;42.63;;;24.58;;
60076;SDS011;45950;45.208;20.374;2024-02-15T04:20:58;47.92;;;27.88;;
60076;SDS011;45950;45.208;20.374;2024-02-15T04:23:25;46.75;;;27.77;;
60076;SDS011;45950;45.208;20.374;2024-02-15T04:25:51;51.60;;;28.85;;
60076;SDS011;45950;45.208;20.374;2024-02-15T04:28:19;53.20;;;30.20;;
60076;SDS011;45950;45.208;20.374;2024-02-15T04:30:46;50.83;;;28.40;;
60076;SDS011;45950;45.208;20.374;2024-02-15T04:33:13;51.10;;;28.77;;
60076;SDS011;45950;45.208;20.374;2024-02-15T04:38:33;51.55;;;30.45;;
60076;SDS011;45950;45.208;20.374;2024-02-15T04:41:00;53.58;;;28.55;;
60076;SDS011;45950;45.208;20.374;2024-02-15T04:43:29;49.17;;;29.50;;
60076;SDS011;45950;45.208;20.374;2024-02-15T04:45:56;46.05;;;26.40;;
60076;SDS011;45950;45.208;20.374;2024-02-15T04:48:23;47.92;;;26.00;;
60076;SDS011;45950;45.208;20.374;2024-02-15T04:50:50;51.13;;;28.35;;
60076;SDS011;45950;45.208;20.374;2024-02-15T04:53:17;49.95;;;29.00;;
60076;SDS011;45950;45.208;20.374;2024-02-15T04:55:45;53.85;;;29.85;;
60076;SDS011;45950;45.208;20.374;2024-02-15T04:58:12;45.50;;;26.75;;
60076;SDS011;45950;45.208;20.374;2024-02-15T05:00:38;57.13;;;33.25;;
60076;SDS011;45950;45.208;20.374;2024-02-15T05:03:05;51.40;;;29.67;;
60076;SDS011;45950;45.208;20.374;2024-02-15T05:05:33;48.00;;;28.35;;
60076;SDS011;45950;45.208;20.374;2024-02-15T05:07:59;60.10;;;33.83;;
60076;SDS011;45950;45.208;20.374;2024-02-15T05:10:26;70.60;;;36.05;;
60076;SDS011;45950;45.208;20.374;2024-02-15T05:12:54;58.13;;;32.57;;
60076;SDS011;45950;45.208;20.374;2024-02-15T05:18:10;58.50;;;32.13;;
60076;SDS011;45950;45.208;20.374;2024-02-15T05:20:37;50.78;;;30.85;;
60076;SDS011;45950;45.208;20.374;2024-02-15T05:23:03;56.45;;;33.03;;
60076;SDS011;45950;45.208;20.374;2024-02-15T05:25:31;61.85;;;35.45;;
60076;SDS011;45950;45.208;20.374;2024-02-15T05:28:00;63.60;;;36.97;;
60076;SDS011;45950;45.208;20.374;2024-02-15T05:30:28;61.00;;;33.85;;
60076;SDS011;45950;45.208;20.374;2024-02-15T05:32:57;55.47;;;34.42;;
60076;SDS011;45950;45.208;20.374;2024-02-15T05:35:24;58.17;;;35.03;;
60076;SDS011;45950;45.208;20.374;2024-02-15T05:37:52;58.92;;;35.22;;
60076;SDS011;45950;45.208;20.374;2024-02-15T05:40:26;63.25;;;36.25;;
60076;SDS011;45950;45.208;20.374;2024-02-15T05:42:55;66.75;;;36.95;;
60076;SDS011;45950;45.208;20.374;2024-02-15T05:45:31;64.20;;;38.28;;
60076;SDS011;45950;45.208;20.374;2024-02-15T05:48:02;62.97;;;37.37;;
60076;SDS011;45950;45.208;20.374;2024-02-15T05:50:32;65.17;;;37.70;;
60076;SDS011;45950;45.208;20.374;2024-02-15T05:52:58;63.85;;;36.17;;
60076;SDS011;45950;45.208;20.374;2024-02-15T05:55:26;81.07;;;44.13;;
60076;SDS011;45950;45.208;20.374;2024-02-15T05:57:56;80.80;;;47.63;;
60076;SDS011;45950;45.208;20.374;2024-02-15T06:00:23;79.63;;;45.77;;
60076;SDS011;45950;45.208;20.374;2024-02-15T06:02:52;85.13;;;47.55;;
60076;SDS011;45950;45.208;20.374;2024-02-15T06:05:20;84.97;;;46.53;;
60076;SDS011;45950;45.208;20.374;2024-02-15T06:07:47;87.88;;;47.65;;
60076;SDS011;45950;45.208;20.374;2024-02-15T06:10:13;68.30;;;40.47;;
60076;SDS011;45950;45.208;20.374;2024-02-15T06:12:40;73.43;;;39.33;;
60076;SDS011;45950;45.208;20.374;2024-02-15T06:15:09;65.05;;;38.08;;
60076;SDS011;45950;45.208;20.374;2024-02-15T06:17:40;69.40;;;39.42;;
60076;SDS011;45950;45.208;20.374;2024-02-15T06:20:08;68.93;;;40.92;;
60076;SDS011;45950;45.208;20.374;2024-02-15T06:22:45;66.47;;;38.85;;
60076;SDS011;45950;45.208;20.374;2024-02-15T06:25:12;58.28;;;34.75;;
60076;SDS011;45950;45.208;20.374;2024-02-15T06:27:41;57.80;;;34.50;;
60076;SDS011;45950;45.208;20.374;2024-02-15T06:30:08;56.55;;;33.70;;
60076;SDS011;45950;45.208;20.374;2024-02-15T06:32:52;63.83;;;35.17;;
60076;SDS011;45950;45.208;20.374;2024-02-15T06:38:40;87.20;;;42.53;;
60076;SDS011;45950;45.208;20.374;2024-02-15T06:41:24;83.78;;;43.80;;
60076;SDS011;45950;45.208;20.374;2024-02-15T06:43:51;71.18;;;39.65;;
60076;SDS011;45950;45.208;20.374;2024-02-15T06:46:18;66.00;;;38.35;;
60076;SDS011;45950;45.208;20.374;2024-02-15T06:48:44;59.75;;;35.67;;
60076;SDS011;45950;45.208;20.374;2024-02-15T06:51:12;64.68;;;37.17;;
60076;SDS011;45950;45.208;20.374;2024-02-15T06:56:44;71.13;;;41.45;;
60076;SDS011;45950;45.208;20.374;2024-02-15T06:59:11;72.60;;;41.03;;
60076;SDS011;45950;45.208;20.374;2024-02-15T07:01:39;81.10;;;43.28;;
60076;SDS011;45950;45.208;20.374;2024-02-15T07:04:06;68.10;;;38.45;;
60076;SDS011;45950;45.208;20.374;2024-02-15T07:06:36;73.30;;;40.28;;
60076;SDS011;45950;45.208;20.374;2024-02-15T07:12:07;101.50;;;53.70;;
60076;SDS011;45950;45.208;20.374;2024-02-15T07:14:34;75.57;;;42.90;;
60076;SDS011;45950;45.208;20.374;2024-02-15T07:17:00;81.95;;;50.10;;
60076;SDS011;45950;45.208;20.374;2024-02-15T07:19:27;69.13;;;43.42;;
60076;SDS011;45950;45.208;20.374;2024-02-15T07:21:54;70.60;;;42.80;;
60076;SDS011;45950;45.208;20.374;2024-02-15T07:24:22;60.80;;;37.55;;
60076;SDS011;45950;45.208;20.374;2024-02-15T07:26:52;65.00;;;35.97;;
60076;SDS011;45950;45.208;20.374;2024-02-15T07:29:21;64.60;;;36.45;;
60076;SDS011;45950;45.208;20.374;2024-02-15T07:31:50;63.30;;;38.25;;
60076;SDS011;45950;45.208;20.374;2024-02-15T07:34:17;60.38;;;35.13;;
60076;SDS011;45950;45.208;20.374;2024-02-15T07:36:44;57.22;;;35.75;;
60076;SDS011;45950;45.208;20.374;2024-02-15T07:39:11;60.08;;;36.40;;
60076;SDS011;45950;45.208;20.374;2024-02-15T07:41:48;56.15;;;34.58;;
60076;SDS011;45950;45.208;20.374;2024-02-15T07:44:15;62.40;;;36.95;;
60076;SDS011;45950;45.208;20.374;2024-02-15T07:46:44;61.45;;;36.33;;
60076;SDS011;45950;45.208;20.374;2024-02-15T07:49:12;62.05;;;37.65;;
60076;SDS011;45950;45.208;20.374;2024-02-15T07:51:44;60.08;;;37.92;;
60076;SDS011;45950;45.208;20.374;2024-02-15T07:54:11;50.30;;;31.52;;
60076;SDS011;45950;45.208;20.374;2024-02-15T07:56:37;53.50;;;33.53;;
60076;SDS011;45950;45.208;20.374;2024-02-15T07:59:04;49.65;;;33.08;;
60076;SDS011;45950;45.208;20.374;2024-02-15T08:01:32;52.05;;;31.40;;
60076;SDS011;45950;45.208;20.374;2024-02-15T08:04:00;51.65;;;31.73;;
60076;SDS011;45950;45.208;20.374;2024-02-15T08:06:27;50.28;;;30.08;;
60076;SDS011;45950;45.208;20.374;2024-02-15T08:08:53;51.00;;;32.88;;
60076;SDS011;45950;45.208;20.374;2024-02-15T08:11:20;47.95;;;30.85;;
60076;SDS011;45950;45.208;20.374;2024-02-15T08:13:47;43.55;;;26.08;;
60076;SDS011;45950;45.208;20.374;2024-02-15T08:16:15;59.30;;;33.60;;
60076;SDS011;45950;45.208;20.374;2024-02-15T08:18:41;49.88;;;28.10;;
60076;SDS011;45950;45.208;20.374;2024-02-15T08:21:10;53.10;;;30.30;;
60076;SDS011;45950;45.208;20.374;2024-02-15T08:23:37;40.55;;;26.13;;
60076;SDS011;45950;45.208;20.374;2024-02-15T08:26:03;43.85;;;25.67;;
60076;SDS011;45950;45.208;20.374;2024-02-15T08:28:30;41.90;;;24.42;;
60076;SDS011;45950;45.208;20.374;2024-02-15T08:30:56;39.50;;;24.90;;
60076;SDS011;45950;45.208;20.374;2024-02-15T08:33:23;39.38;;;25.10;;
60076;SDS011;45950;45.208;20.374;2024-02-15T08:35:59;41.00;;;25.67;;
60076;SDS011;45950;45.208;20.374;2024-02-15T08:38:28;43.60;;;25.85;;
60076;SDS011;45950;45.208;20.374;2024-02-15T08:40:55;33.42;;;22.33;;
60076;SDS011;45950;45.208;20.374;2024-02-15T08:43:22;35.08;;;22.77;;
60076;SDS011;45950;45.208;20.374;2024-02-15T08:45:48;34.83;;;21.70;;
60076;SDS011;45950;45.208;20.374;2024-02-15T08:48:17;41.47;;;26.30;;
60076;SDS011;45950;45.208;20.374;2024-02-15T08:50:43;43.17;;;26.48;;
60076;SDS011;45950;45.208;20.374;2024-02-15T08:53:10;40.35;;;25.42;;
60076;SDS011;45950;45.208;20.374;2024-02-15T08:55:44;36.70;;;22.58;;
60076;SDS011;45950;45.208;20.374;2024-02-15T08:58:10;39.97;;;24.92;;
60076;SDS011;45950;45.208;20.374;2024-02-15T09:00:37;29.00;;;18.42;;
60076;SDS011;45950;45.208;20.374;2024-02-15T09:03:09;23.40;;;14.40;;
60076;SDS011;45950;45.208;20.374;2024-02-15T09:05:36;20.55;;;14.25;;
60076;SDS011;45950;45.208;20.374;2024-02-15T09:08:03;19.98;;;12.13;;
60076;SDS011;45950;45.208;20.374;2024-02-15T09:10:30;22.95;;;14.30;;
60076;SDS011;45950;45.208;20.374;2024-02-15T09:12:58;42.30;;;23.23;;
60076;SDS011;45950;45.208;20.374;2024-02-15T09:15:24;40.58;;;24.63;;
60076;SDS011;45950;45.208;20.374;2024-02-15T09:17:51;113.63;;;62.17;;
60076;SDS011;45950;45.208;20.374;2024-02-15T09:20:19;37.42;;;22.00;;
60076;SDS011;45950;45.208;20.374;2024-02-15T09:22:47;56.20;;;28.58;;
60076;SDS011;45950;45.208;20.374;2024-02-15T09:25:14;35.92;;;21.42;;
60076;SDS011;45950;45.208;20.374;2024-02-15T09:27:40;40.75;;;21.20;;
60076;SDS011;45950;45.208;20.374;2024-02-15T09:30:09;29.33;;;18.38;;
60076;SDS011;45950;45.208;20.374;2024-02-15T09:32:37;21.40;;;13.25;;
60076;SDS011;45950;45.208;20.374;2024-02-15T09:35:04;19.08;;;12.93;;
60076;SDS011;45950;45.208;20.374;2024-02-15T09:37:34;17.95;;;11.98;;
60076;SDS011;45950;45.208;20.374;2024-02-15T09:40:00;17.40;;;11.27;;
60076;SDS011;45950;45.208;20.374;2024-02-15T09:42:31;18.98;;;13.05;;
60076;SDS011;45950;45.208;20.374;2024-02-15T09:45:15;16.70;;;10.25;;
60076;SDS011;45950;45.208;20.374;2024-02-15T09:47:43;17.48;;;11.95;;
60076;SDS011;45950;45.208;20.374;2024-02-15T09:50:10;18.60;;;12.23;;
60076;SDS011;45950;45.208;20.374;2024-02-15T09:52:47;24.17;;;15.95;;
60076;SDS011;45950;45.208;20.374;2024-02-15T09:55:14;19.15;;;12.77;;
60076;SDS011;45950;45.208;20.374;2024-02-15T09:57:41;38.25;;;21.38;;
60076;SDS011;45950;45.208;20.374;2024-02-15T10:00:08;28.60;;;15.93;;
60076;SDS011;45950;45.208;20.374;2024-02-15T10:02:40;21.23;;;12.20;;
60076;SDS011;45950;45.208;20.374;2024-02-15T10:05:07;14.50;;;9.65;;
60076;SDS011;45950;45.208;20.374;2024-02-15T10:07:36;10.88;;;7.85;;
60076;SDS011;45950;45.208;20.374;2024-02-15T10:10:13;10.13;;;6.38;;
60076;SDS011;45950;45.208;20.374;2024-02-15T10:12:42;9.27;;;6.60;;
60076;SDS011;45950;45.208;20.374;2024-02-15T10:15:09;10.38;;;6.80;;
60076;SDS011;45950;45.208;20.374;2024-02-15T10:17:36;10.93;;;7.80;;
60076;SDS011;45950;45.208;20.374;2024-02-15T10:20:09;11.30;;;7.75;;
60076;SDS011;45950;45.208;20.374;2024-02-15T10:22:36;11.38;;;8.30;;
60076;SDS011;45950;45.208;20.374;2024-02-15T10:25:12;15.15;;;9.57;;
60076;SDS011;45950;45.208;20.374;2024-02-15T10:27:39;10.52;;;7.18;;
60076;SDS011;45950;45.208;20.374;2024-02-15T10:30:14;15.18;;;9.18;;
60076;SDS011;45950;45.208;20.374;2024-02-15T10:32:41;12.70;;;7.15;;
60076;SDS011;45950;45.208;20.374;2024-02-15T10:35:20;20.35;;;11.75;;
60076;SDS011;45950;45.208;20.374;2024-02-15T10:37:47;10.00;;;6.82;;
60076;SDS011;45950;45.208;20.374;2024-02-15T10:40:17;10.55;;;7.00;;
60076;SDS011;45950;45.208;20.374;2024-02-15T10:42:44;11.10;;;7.15;;
60076;SDS011;45950;45.208;20.374;2024-02-15T10:45:11;9.48;;;6.88;;
60076;SDS011;45950;45.208;20.374;2024-02-15T10:47:39;10.00;;;6.90;;
60076;SDS011;45950;45.208;20.374;2024-02-15T10:50:06;8.52;;;5.97;;
60076;SDS011;45950;45.208;20.374;2024-02-15T10:52:35;15.32;;;8.05;;
60076;SDS011;45950;45.208;20.374;2024-02-15T10:55:05;10.35;;;7.10;;
60076;SDS011;45950;45.208;20.374;2024-02-15T10:57:37;10.48;;;7.13;;
60076;SDS011;45950;45.208;20.374;2024-02-15T11:00:04;9.70;;;6.57;;
60076;SDS011;45950;45.208;20.374;2024-02-15T11:02:37;8.18;;;6.05;;
60076;SDS011;45950;45.208;20.374;2024-02-15T11:07:56;10.80;;;7.65;;
60076;SDS011;45950;45.208;20.374;2024-02-15T11:10:23;19.38;;;11.13;;
60076;SDS011;45950;45.208;20.374;2024-02-15T11:12:50;27.58;;;15.38;;
60076;SDS011;45950;45.208;20.374;2024-02-15T11:17:58;14.98;;;9.13;;
60076;SDS011;45950;45.208;20.374;2024-02-15T11:23:10;10.68;;;7.15;;
60076;SDS011;45950;45.208;20.374;2024-02-15T11:25:38;12.65;;;9.30;;
60076;SDS011;45950;45.208;20.374;2024-02-15T11:30:48;13.02;;;8.35;;
60076;SDS011;45950;45.208;20.374;2024-02-15T11:33:24;11.93;;;8.40;;
60076;SDS011;45950;45.208;20.374;2024-02-15T11:36:01;11.90;;;7.60;;
60076;SDS011;45950;45.208;20.374;2024-02-15T11:38:29;10.98;;;7.95;;
60076;SDS011;45950;45.208;20.374;2024-02-15T11:40:59;11.05;;;8.50;;
60076;SDS011;45950;45.208;20.374;2024-02-15T11:46:12;9.18;;;6.13;;
60076;SDS011;45950;45.208;20.374;2024-02-15T11:48:39;14.45;;;6.03;;
60076;SDS011;45950;45.208;20.374;2024-02-15T11:51:06;9.27;;;5.57;;
60076;SDS011;45950;45.208;20.374;2024-02-15T11:53:37;9.27;;;5.50;;
60076;SDS011;45950;45.208;20.374;2024-02-15T11:56:05;7.90;;;5.03;;
60076;SDS011;45950;45.208;20.374;2024-02-15T11:58:34;9.60;;;6.28;;
60076;SDS011;45950;45.208;20.374;2024-02-15T12:01:17;9.00;;;6.68;;
60076;SDS011;45950;45.208;20.374;2024-02-15T12:04:06;9.52;;;7.18;;
60076;SDS011;45950;45.208;20.374;2024-02-15T12:06:56;9.40;;;6.38;;
60076;SDS011;45950;45.208;20.374;2024-02-15T12:09:41;10.07;;;6.72;;
60076;SDS011;45950;45.208;20.374;2024-02-15T12:15:28;8.95;;;6.90;;
60076;SDS011;45950;45.208;20.374;2024-02-15T12:18:15;10.10;;;6.70;;
60076;SDS011;45950;45.208;20.374;2024-02-15T12:20:59;8.38;;;5.97;;
60076;SDS011;45950;45.208;20.374;2024-02-15T12:23:27;8.82;;;6.35;;
60076;SDS011;45950;45.208;20.374;2024-02-15T12:25:57;7.97;;;5.50;;
60076;SDS011;45950;45.208;20.374;2024-02-15T12:28:23;8.65;;;5.82;;
60076;SDS011;45950;45.208;20.374;2024-02-15T12:30:54;10.00;;;5.82;;
60076;SDS011;45950;45.208;20.374;2024-02-15T12:33:21;11.63;;;6.35;;
60076;SDS011;45950;45.208;20.374;2024-02-15T12:38:34;10.25;;;6.43;;
60076;SDS011;45950;45.208;20.374;2024-02-15T12:41:04;11.77;;;6.13;;
60076;SDS011;45950;45.208;20.374;2024-02-15T12:43:30;8.82;;;6.35;;
60076;SDS011;45950;45.208;20.374;2024-02-15T12:45:57;11.48;;;7.28;;
60076;SDS011;45950;45.208;20.374;2024-02-15T12:48:24;9.88;;;5.78;;
60076;SDS011;45950;45.208;20.374;2024-02-15T12:50:51;8.40;;;5.63;;
60076;SDS011;45950;45.208;20.374;2024-02-15T12:53:22;11.60;;;6.28;;
60076;SDS011;45950;45.208;20.374;2024-02-15T12:56:08;14.68;;;9.50;;
60076;SDS011;45950;45.208;20.374;2024-02-15T12:58:35;13.23;;;9.48;;
60076;SDS011;45950;45.208;20.374;2024-02-15T13:01:04;16.65;;;10.70;;
60076;SDS011;45950;45.208;20.374;2024-02-15T13:03:42;22.17;;;13.75;;
60076;SDS011;45950;45.208;20.374;2024-02-15T13:06:09;20.08;;;12.23;;
60076;SDS011;45950;45.208;20.374;2024-02-15T13:08:36;13.88;;;9.68;;
60076;SDS011;45950;45.208;20.374;2024-02-15T13:11:02;12.82;;;10.10;;
60076;SDS011;45950;45.208;20.374;2024-02-15T13:13:31;8.82;;;5.65;;
60076;SDS011;45950;45.208;20.374;2024-02-15T13:16:00;8.20;;;5.75;;
60076;SDS011;45950;45.208;20.374;2024-02-15T13:18:26;7.00;;;4.78;;
60076;SDS011;45950;45.208;20.374;2024-02-15T13:20:53;7.25;;;4.82;;
60076;SDS011;45950;45.208;20.374;2024-02-15T13:23:20;6.45;;;4.30;;
60076;SDS011;45950;45.208;20.374;2024-02-15T13:25:50;7.63;;;4.63;;
60076;SDS011;45950;45.208;20.374;2024-02-15T13:28:17;8.07;;;4.50;;
60076;SDS011;45950;45.208;20.374;2024-02-15T13:30:45;7.05;;;4.78;;
60076;SDS011;45950;45.208;20.374;2024-02-15T13:33:12;6.95;;;4.40;;
60076;SDS011;45950;45.208;20.374;2024-02-15T13:35:38;6.30;;;5.18;;
60076;SDS011;45950;45.208;20.374;2024-02-15T13:38:06;7.57;;;4.55;;
60076;SDS011;45950;45.208;20.374;2024-02-15T13:40:39;9.38;;;5.35;;
60076;SDS011;45950;45.208;20.374;2024-02-15T13:43:07;8.07;;;5.32;;
60076;SDS011;45950;45.208;20.374;2024-02-15T13:45:38;7.22;;;5.30;;
60076;SDS011;45950;45.208;20.374;2024-02-15T13:48:06;6.60;;;4.63;;
60076;SDS011;45950;45.208;20.374;2024-02-15T13:50:34;6.43;;;4.35;;
60076;SDS011;45950;45.208;20.374;2024-02-15T13:53:01;6.25;;;4.20;;
60076;SDS011;45950;45.208;20.374;2024-02-15T13:55:28;9.82;;;4.80;;
60076;SDS011;45950;45.208;20.374;2024-02-15T13:57:54;7.55;;;5.22;;
60076;SDS011;45950;45.208;20.374;2024-02-15T14:00:22;7.80;;;4.50;;
60076;SDS011;45950;45.208;20.374;2024-02-15T14:02:49;5.63;;;3.95;;
60076;SDS011;45950;45.208;20.374;2024-02-15T14:05:17;5.88;;;4.10;;
60076;SDS011;45950;45.208;20.374;2024-02-15T14:10:47;8.15;;;4.78;;
60076;SDS011;45950;45.208;20.374;2024-02-15T14:13:14;6.63;;;3.97;;
60076;SDS011;45950;45.208;20.374;2024-02-15T14:15:41;7.32;;;3.92;;
60076;SDS011;45950;45.208;20.374;2024-02-15T14:18:08;6.32;;;3.60;;
60076;SDS011;45950;45.208;20.374;2024-02-15T14:20:39;5.25;;;3.65;;
60076;SDS011;45950;45.208;20.374;2024-02-15T14:23:08;7.75;;;4.60;;
60076;SDS011;45950;45.208;20.374;2024-02-15T14:25:38;5.95;;;3.80;;
60076;SDS011;45950;45.208;20.374;2024-02-15T14:28:05;6.03;;;4.20;;
60076;SDS011;45950;45.208;20.374;2024-02-15T14:30:33;7.22;;;4.10;;
60076;SDS011;45950;45.208;20.374;2024-02-15T14:36:19;9.15;;;4.80;;
60076;SDS011;45950;45.208;20.374;2024-02-15T14:38:47;5.57;;;4.25;;
60076;SDS011;45950;45.208;20.374;2024-02-15T14:41:13;5.57;;;3.92;;
60076;SDS011;45950;45.208;20.374;2024-02-15T14:43:41;6.43;;;4.10;;
60076;SDS011;45950;45.208;20.374;2024-02-15T14:46:08;5.97;;;3.80;;
60076;SDS011;45950;45.208;20.374;2024-02-15T14:48:35;5.93;;;4.25;;
60076;SDS011;45950;45.208;20.374;2024-02-15T14:51:05;5.32;;;3.67;;
60076;SDS011;45950;45.208;20.374;2024-02-15T14:53:33;7.55;;;4.97;;
60076;SDS011;45950;45.208;20.374;2024-02-15T14:55:59;8.48;;;6.18;;
60076;SDS011;45950;45.208;20.374;2024-02-15T14:58:27;11.00;;;6.80;;
60076;SDS011;45950;45.208;20.374;2024-02-15T15:00:53;11.13;;;7.05;;
60076;SDS011;45950;45.208;20.374;2024-02-15T15:03:21;11.13;;;6.05;;
60076;SDS011;45950;45.208;20.374;2024-02-15T15:05:48;9.25;;;6.28;;
60076;SDS011;45950;45.208;20.374;2024-02-15T15:08:34;10.38;;;6.57;;
60076;SDS011;45950;45.208;20.374;2024-02-15T15:11:18;9.32;;;6.88;;